createdAt,value
2023-01-01T00:00:51.422Z,2.05
2023-01-01T00:03:19.791Z,2.45
2023-01-01T00:05:47.567Z,3.53
2023-01-01T00:08:18.383Z,1.35
2023-01-01T00:10:46.658Z,2.50
2023-01-01T00:13:15.447Z,2.80
2023-01-01T00:15:43.357Z,3.08
2023-01-01T00:18:11.472Z,2.95
2023-01-01T00:20:39.410Z,4.28
2023-01-01T00:23:07.132Z,2.85
2023-01-01T00:25:35.251Z,3.45
2023-01-01T00:28:03.477Z,4.05
2023-01-01T00:30:31.259Z,2.45
2023-01-01T00:32:59.391Z,2.87
2023-01-01T00:35:27.915Z,4.00
2023-01-01T00:37:56.038Z,4.47
2023-01-01T00:40:24.358Z,3.70
2023-01-01T00:42:52.322Z,4.20
2023-01-01T00:45:23.118Z,3.65
2023-01-01T00:47:53.498Z,5.15
2023-01-01T00:50:23.955Z,4.05
2023-01-01T00:52:55.563Z,3.15
2023-01-01T00:55:23.517Z,2.50
2023-01-01T00:57:54.347Z,3.28
2023-01-01T01:00:22.711Z,4.35
2023-01-01T01:02:50.505Z,2.78
2023-01-01T01:05:21.335Z,5.87
2023-01-01T01:07:49.638Z,2.65
2023-01-01T01:10:17.941Z,6.55
2023-01-01T01:12:48.857Z,4.25
2023-01-01T01:15:17.150Z,7.25
2023-01-01T01:17:45.082Z,5.40
2023-01-01T01:20:13.283Z,5.87
2023-01-01T01:22:41.608Z,4.28
2023-01-01T01:25:09.896Z,4.37
2023-01-01T01:27:37.865Z,5.22
2023-01-01T01:30:06.820Z,5.03
2023-01-01T01:32:34.837Z,4.68
2023-01-01T01:35:02.665Z,4.40
2023-01-01T01:37:30.980Z,4.22
2023-01-01T01:39:58.885Z,4.82
2023-01-01T01:42:26.862Z,7.05
2023-01-01T01:45:01.211Z,7.68
2023-01-01T01:47:36.662Z,6.00
2023-01-01T01:50:16.990Z,5.75
2023-01-01T01:53:06.109Z,5.35
2023-01-01T01:55:38.141Z,4.70
2023-01-01T01:58:10.423Z,3.72
2023-01-01T02:00:41.767Z,7.35
2023-01-01T02:03:22.365Z,4.85
2023-01-01T02:05:51.946Z,5.72
2023-01-01T02:08:21.517Z,4.93
2023-01-01T02:10:49.292Z,7.28
2023-01-01T02:13:18.367Z,7.32
2023-01-01T02:15:57.918Z,6.00
2023-01-01T02:18:50.210Z,4.90
2023-01-01T02:21:25.841Z,7.50
2023-01-01T02:24:06.861Z,5.12
2023-01-01T02:26:47.847Z,7.12
2023-01-01T02:29:38.820Z,3.97
2023-01-01T02:32:18.724Z,6.78
2023-01-01T02:35:00.431Z,4.35
2023-01-01T02:37:30.070Z,4.93
2023-01-01T02:39:59.988Z,3.40
2023-01-01T02:42:30.793Z,4.45
2023-01-01T02:45:00.570Z,3.67
2023-01-01T02:47:30.816Z,4.62
2023-01-01T02:50:13.429Z,4.00
2023-01-01T02:53:00.107Z,4.97
2023-01-01T02:55:59.807Z,5.37
2023-01-01T02:59:11.644Z,3.40
2023-01-01T03:01:51.025Z,4.12
2023-01-01T03:04:21.909Z,3.40
2023-01-01T03:07:14.733Z,2.78
2023-01-01T03:10:24.316Z,3.67
2023-01-01T03:12:51.995Z,4.97
2023-01-01T03:15:29.233Z,5.65
2023-01-01T03:18:31.884Z,2.62
2023-01-01T03:21:03.831Z,2.10
2023-01-01T03:23:37.557Z,3.33
2023-01-01T03:26:10.981Z,3.47
2023-01-01T03:28:54.347Z,3.53
2023-01-01T03:31:26.020Z,3.90
2023-01-01T03:34:04.219Z,3.35
2023-01-01T03:36:37.792Z,4.47
2023-01-01T03:39:08.416Z,2.75
2023-01-01T03:41:42.615Z,3.78
2023-01-01T03:44:21.768Z,3.62
2023-01-01T03:46:50.781Z,3.30
2023-01-01T03:49:19.782Z,3.72
2023-01-01T03:52:02.772Z,3.15
2023-01-01T03:54:39.761Z,4.97
2023-01-01T03:57:35.969Z,4.47
2023-01-01T04:00:08.394Z,4.40
2023-01-01T04:02:53.028Z,4.53
2023-01-01T04:05:22.314Z,4.45
2023-01-01T04:07:52.356Z,4.78
2023-01-01T04:10:20.940Z,3.55
2023-01-01T04:12:56.582Z,2.67
2023-01-01T04:15:27.092Z,3.55
2023-01-01T04:17:55.624Z,3.30
2023-01-01T04:20:24.195Z,3.70
2023-01-01T04:22:52.124Z,3.87
2023-01-01T04:25:20.318Z,2.15
2023-01-01T04:27:51.149Z,3.12
2023-01-01T04:30:19.703Z,3.92
2023-01-01T04:32:48.052Z,2.17
2023-01-01T04:35:16.361Z,3.97
2023-01-01T04:37:46.401Z,2.95
2023-01-01T04:40:15.365Z,3.03
2023-01-01T04:42:43.803Z,3.83
2023-01-01T04:45:15.519Z,3.62
2023-01-01T04:47:44.067Z,4.50
2023-01-01T04:50:11.893Z,2.67
2023-01-01T04:52:39.821Z,3.72
2023-01-01T04:55:08.543Z,3.78
2023-01-01T04:57:36.451Z,3.53
2023-01-01T05:00:04.933Z,3.05
2023-01-01T05:02:33.374Z,3.40
2023-01-01T05:05:01.543Z,3.80
2023-01-01T05:07:30.592Z,3.17
2023-01-01T05:09:58.941Z,3.53
2023-01-01T05:12:30.597Z,3.10
2023-01-01T05:14:58.836Z,2.37
2023-01-01T05:17:26.816Z,3.65
2023-01-01T05:19:54.758Z,3.15
2023-01-01T05:22:23.193Z,3.12
2023-01-01T05:24:51.181Z,3.00
2023-01-01T05:27:19.153Z,3.95
2023-01-01T05:29:47.435Z,3.90
2023-01-01T05:34:41.934Z,3.28
2023-01-01T05:37:10.267Z,4.72
2023-01-01T05:39:38.143Z,1.75
2023-01-01T05:42:06.123Z,2.85
2023-01-01T05:44:34.482Z,3.90
2023-01-01T05:47:05.543Z,2.87
2023-01-01T05:49:33.474Z,4.03
2023-01-01T05:52:02.958Z,4.18
2023-01-01T05:54:34.395Z,4.03
2023-01-01T05:57:02.702Z,3.60
2023-01-01T05:59:30.624Z,3.17
2023-01-01T06:01:58.396Z,2.12
2023-01-01T06:04:26.806Z,4.78
2023-01-01T06:06:54.798Z,4.82
2023-01-01T06:09:22.835Z,4.47
2023-01-01T06:11:50.951Z,3.28
2023-01-01T06:14:18.859Z,2.15
2023-01-01T06:16:46.767Z,3.75
2023-01-01T06:19:15.127Z,2.70
2023-01-01T06:21:46.456Z,4.20
2023-01-01T06:24:14.491Z,2.87
2023-01-01T06:26:42.856Z,4.30
2023-01-01T06:29:10.778Z,3.08
2023-01-01T06:31:40.936Z,2.08
2023-01-01T06:34:09.748Z,3.55
2023-01-01T06:36:37.765Z,3.25
2023-01-01T06:39:05.983Z,2.95
2023-01-01T06:41:34.280Z,3.58
2023-01-01T06:44:02.423Z,4.43
2023-01-01T06:46:33.072Z,3.85
2023-01-01T06:49:05.055Z,4.18
2023-01-01T06:51:37.018Z,3.72
2023-01-01T06:54:05.711Z,3.42
2023-01-01T06:59:20.454Z,4.47
2023-01-01T07:01:48.183Z,3.22
2023-01-01T07:04:16.845Z,3.55
2023-01-01T07:06:45.124Z,4.20
2023-01-01T07:09:12.921Z,2.62
2023-01-01T07:11:41.019Z,3.75
2023-01-01T07:14:09.181Z,4.35
2023-01-01T07:16:37.018Z,4.12
2023-01-01T07:19:04.896Z,4.12
2023-01-01T07:21:51.661Z,2.78
2023-01-01T07:24:19.650Z,2.03
2023-01-01T07:26:49.249Z,2.90
2023-01-01T07:29:17.512Z,3.30
2023-01-01T07:31:48.189Z,3.40
2023-01-01T07:34:20.111Z,1.70
2023-01-01T07:36:48.003Z,1.80
2023-01-01T07:39:16.391Z,2.97
2023-01-01T07:41:44.232Z,2.45
2023-01-01T07:44:14.078Z,3.22
2023-01-01T07:46:42.368Z,2.78
2023-01-01T07:49:10.267Z,2.85
2023-01-01T07:51:38.081Z,2.87
2023-01-01T07:54:07.618Z,2.95
2023-01-01T07:56:36.501Z,2.47
2023-01-01T07:59:05.207Z,3.37
2023-01-01T08:01:37.033Z,3.15
2023-01-01T08:04:06.169Z,3.47
2023-01-01T08:06:34.415Z,3.20
2023-01-01T08:09:02.327Z,3.30
2023-01-01T08:11:30.704Z,3.97
2023-01-01T08:14:02.137Z,3.65
2023-01-01T08:16:32.759Z,3.35
2023-01-01T08:19:05.080Z,3.33
2023-01-01T08:21:33.547Z,3.08
2023-01-01T08:24:01.976Z,3.62
2023-01-01T08:26:33.345Z,3.17
2023-01-01T08:29:07.169Z,2.90
2023-01-01T08:31:35.504Z,2.42
2023-01-01T08:34:04.345Z,1.95
2023-01-01T08:36:33.067Z,3.25
2023-01-01T08:39:01.667Z,4.90
2023-01-01T08:41:32.936Z,4.22
2023-01-01T08:44:00.947Z,3.53
2023-01-01T08:46:29.538Z,3.33
2023-01-01T08:48:57.978Z,3.92
2023-01-01T08:51:26.181Z,3.20
2023-01-01T08:53:54.625Z,3.20
2023-01-01T08:56:25.814Z,4.05
2023-01-01T08:58:57.454Z,4.07
2023-01-01T09:01:30.907Z,4.50
2023-01-01T09:04:00.101Z,4.40
2023-01-01T09:06:28.344Z,2.70
2023-01-01T09:08:56.717Z,3.55
2023-01-01T09:11:29.557Z,3.85
2023-01-01T09:13:57.819Z,4.80
2023-01-01T09:16:27.466Z,5.90
2023-01-01T09:18:56.262Z,5.93
2023-01-01T09:21:25.416Z,6.40
2023-01-01T09:23:57.517Z,4.57
2023-01-01T09:26:25.998Z,3.17
2023-01-01T09:28:56.921Z,2.78
2023-01-01T09:31:26.026Z,2.85
2023-01-01T09:33:54.358Z,2.83
2023-01-01T09:36:22.467Z,3.03
2023-01-01T09:38:53.177Z,3.22
2023-01-01T09:41:44.171Z,3.42
2023-01-01T09:44:37.761Z,3.92
2023-01-01T09:47:18.133Z,3.75
2023-01-01T09:49:49.570Z,3.10
2023-01-01T09:52:18.779Z,3.12
2023-01-01T09:55:13.820Z,2.83
2023-01-01T09:57:42.773Z,2.20
2023-01-01T10:00:17.921Z,2.78
2023-01-01T10:03:16.664Z,3.33
2023-01-01T10:05:57.387Z,2.75
2023-01-01T10:08:57.532Z,2.95
2023-01-01T10:11:40.297Z,3.28
2023-01-01T10:14:33.535Z,3.10
2023-01-01T10:17:11.782Z,2.65
2023-01-01T10:19:56.860Z,2.65
2023-01-01T10:22:36.773Z,3.00
2023-01-01T10:25:24.808Z,2.72
2023-01-01T10:28:08.115Z,3.00
2023-01-01T10:30:38.330Z,2.40
2023-01-01T10:33:13.526Z,2.70
2023-01-01T10:35:56.426Z,3.28
2023-01-01T10:38:28.107Z,3.40
2023-01-01T10:41:12.116Z,2.87
2023-01-01T10:43:49.297Z,2.87
2023-01-01T10:46:31.255Z,2.65
2023-01-01T10:49:14.557Z,3.58
2023-01-01T10:51:48.584Z,3.35
2023-01-01T10:54:31.717Z,3.40
2023-01-01T10:57:23.468Z,4.68
2023-01-01T10:59:54.567Z,3.95
2023-01-01T11:02:29.695Z,3.67
2023-01-01T11:05:22.187Z,4.43
2023-01-01T11:07:52.534Z,4.43
2023-01-01T11:10:32.862Z,4.22
2023-01-01T11:13:05.545Z,4.57
2023-01-01T11:15:43.265Z,4.15
2023-01-01T11:18:16.332Z,4.10
2023-01-01T11:23:34.440Z,4.40
2023-01-01T11:26:16.179Z,3.65
2023-01-01T11:29:16.932Z,4.47
2023-01-01T11:31:48.274Z,5.12
2023-01-01T11:34:29.831Z,3.67
2023-01-01T11:37:34.998Z,3.07
2023-01-01T11:40:17.260Z,4.07
2023-01-01T11:42:58.251Z,4.15
2023-01-01T11:48:33.042Z,3.90
2023-01-01T11:51:08.697Z,3.25
2023-01-01T11:53:43.621Z,4.00
2023-01-01T11:56:30.159Z,4.28
2023-01-01T11:59:17.415Z,4.37
2023-01-01T12:01:55.793Z,4.07
2023-01-01T12:04:30.667Z,4.68
2023-01-01T12:07:10.003Z,4.15
2023-01-01T12:09:52.231Z,4.43
2023-01-01T12:12:31.039Z,4.07
2023-01-01T12:15:16.292Z,4.50
2023-01-01T12:17:55.078Z,4.20
2023-01-01T12:20:28.670Z,3.40
2023-01-01T12:23:01.963Z,3.45
2023-01-01T12:25:39.949Z,3.60
2023-01-01T12:28:25.484Z,3.83
2023-01-01T12:31:10.128Z,3.08
2023-01-01T12:34:03.185Z,4.07
2023-01-01T12:43:49.254Z,3.35
2023-01-01T12:46:30.934Z,4.53
2023-01-01T12:49:22.269Z,3.15
2023-01-01T12:52:05.685Z,3.10
2023-01-01T12:55:02.060Z,2.85
2023-01-01T12:57:53.851Z,3.90
2023-01-01T13:00:25.603Z,3.58
2023-01-01T13:03:06.498Z,3.45
2023-01-01T13:05:44.893Z,3.53
2023-01-01T13:08:16.015Z,3.55
2023-01-01T13:10:50.057Z,4.68
2023-01-01T13:13:19.467Z,5.20
2023-01-01T13:18:39.011Z,4.43
2023-01-01T13:21:17.475Z,4.57
2023-01-01T13:23:48.697Z,3.08
2023-01-01T13:26:28.802Z,4.37
2023-01-01T13:29:07.739Z,3.47
2023-01-01T13:31:39.388Z,3.65
2023-01-01T13:34:38.428Z,3.80
2023-01-01T13:37:15.626Z,3.60
2023-01-01T13:40:26.998Z,2.90
2023-01-01T13:43:04.130Z,3.83
2023-01-01T13:46:11.778Z,4.03
2023-01-01T13:48:46.987Z,4.37
2023-01-01T13:52:03.511Z,4.00
2023-01-01T13:54:36.224Z,4.70
2023-01-01T13:57:24.688Z,4.03
2023-01-01T14:00:16.704Z,3.62
2023-01-01T14:02:48.825Z,4.03
2023-01-01T14:05:48.121Z,3.65
2023-01-01T14:08:37.117Z,3.67
2023-01-01T14:11:23.134Z,4.10
2023-01-01T14:13:53.651Z,4.93
2023-01-01T14:16:24.099Z,4.97
2023-01-01T14:19:01.726Z,4.62
2023-01-01T14:21:35.887Z,5.10
2023-01-01T14:24:12.562Z,4.03
2023-01-01T14:26:43.759Z,4.35
2023-01-01T14:29:23.969Z,4.68
2023-01-01T14:32:00.485Z,3.70
2023-01-01T14:34:36.882Z,4.25
2023-01-01T14:37:24.584Z,3.55
2023-01-01T14:40:11.948Z,3.55
2023-01-01T14:45:37.049Z,4.40
2023-01-01T14:48:09.226Z,4.43
2023-01-01T14:50:42.171Z,4.03
2023-01-01T14:53:19.318Z,4.55
2023-01-01T14:55:52.049Z,4.45
2023-01-01T14:58:30.172Z,4.43
2023-01-01T15:01:39.858Z,4.20
2023-01-01T15:04:24.212Z,3.90
2023-01-01T15:07:01.714Z,3.72
2023-01-01T15:09:32.738Z,3.92
2023-01-01T15:12:03.989Z,4.78
2023-01-01T15:14:45.881Z,6.20
2023-01-01T15:17:21.508Z,5.43
2023-01-01T15:20:07.105Z,4.57
2023-01-01T15:22:43.928Z,4.12
2023-01-01T15:25:20.210Z,3.53
2023-01-01T15:27:52.917Z,3.55
2023-01-01T15:30:30.802Z,3.78
2023-01-01T15:33:11.176Z,3.70
2023-01-01T15:35:42.967Z,2.62
2023-01-01T15:38:29.910Z,3.25
2023-01-01T15:41:24.202Z,3.83
2023-01-01T15:44:17.871Z,3.72
2023-01-01T15:46:51.863Z,3.50
2023-01-01T15:49:31.567Z,3.55
2023-01-01T15:52:05.996Z,3.37
2023-01-01T15:54:40.652Z,3.47
2023-01-01T15:57:24.029Z,3.90
2023-01-01T15:59:54.041Z,4.25
2023-01-01T16:02:31.624Z,4.05
2023-01-01T16:05:08.385Z,3.78
2023-01-01T16:07:39.754Z,3.85
2023-01-01T16:10:18.419Z,3.53
2023-01-01T16:12:48.305Z,2.95
2023-01-01T16:15:18.055Z,3.22
2023-01-01T16:17:49.097Z,3.83
2023-01-01T16:20:22.810Z,3.28
2023-01-01T16:22:52.768Z,4.25
2023-01-01T16:25:25.030Z,3.83
2023-01-01T16:27:54.372Z,3.87
2023-01-01T16:30:27.245Z,4.47
2023-01-01T16:32:57.937Z,3.97
2023-01-01T16:35:29.809Z,5.43
2023-01-01T16:37:58.938Z,3.97
2023-01-01T16:40:32.601Z,5.30
2023-01-01T16:43:17.044Z,5.75
2023-01-01T16:45:49.259Z,4.95
2023-01-01T16:48:24.765Z,5.10
2023-01-01T16:50:55.699Z,5.20
2023-01-01T16:53:23.656Z,5.47
2023-01-01T16:55:55.771Z,4.35
2023-01-01T17:01:19.194Z,4.80
2023-01-01T17:03:51.689Z,4.97
2023-01-01T17:06:23.151Z,4.28
2023-01-01T17:08:54.294Z,6.30
2023-01-01T17:11:27.110Z,5.78
2023-01-01T17:14:02.858Z,4.93
2023-01-01T17:16:39.200Z,6.00
2023-01-01T17:19:15.163Z,5.60
2023-01-01T17:21:43.760Z,4.55
2023-01-01T17:24:16.152Z,4.45
2023-01-01T17:26:48.683Z,5.40
2023-01-01T17:29:18.524Z,5.22
2023-01-01T17:31:46.451Z,4.78
2023-01-01T17:34:18.292Z,4.78
2023-01-01T17:39:37.755Z,3.35
2023-01-01T17:42:17.333Z,3.60
2023-01-01T17:45:14.410Z,5.15
2023-01-01T17:51:35.982Z,4.82
2023-01-01T17:54:36.109Z,6.05
2023-01-01T17:57:17.058Z,5.15
2023-01-01T18:02:50.324Z,7.78
2023-01-01T18:05:20.768Z,4.85
2023-01-01T18:07:53.457Z,5.20
2023-01-01T18:13:24.792Z,7.80
2023-01-01T18:16:03.814Z,7.12
2023-01-01T18:18:36.466Z,7.68
2023-01-01T18:21:23.429Z,5.93
2023-01-01T18:24:23.774Z,8.25
2023-01-01T18:27:03.809Z,6.68
2023-01-01T18:29:34.802Z,8.27
2023-01-01T18:35:05.002Z,9.27
2023-01-01T18:37:40.264Z,10.18
2023-01-01T18:40:18.400Z,6.82
2023-01-01T18:43:03.484Z,9.20
2023-01-01T18:45:45.029Z,9.60
2023-01-01T18:48:59.474Z,13.07
2023-01-01T18:52:07.687Z,9.77
2023-01-01T18:54:38.979Z,10.68
2023-01-01T18:57:17.613Z,10.27
2023-01-01T18:59:59.626Z,10.80
2023-01-01T19:03:16.342Z,10.18
2023-01-01T19:05:50.636Z,11.47
2023-01-01T19:08:25.976Z,8.82
2023-01-01T19:10:59.634Z,11.15
2023-01-01T19:13:38.852Z,11.38
2023-01-01T19:16:33.554Z,11.40
2023-01-01T19:19:21.305Z,9.57
2023-01-01T19:21:59.153Z,10.90
2023-01-01T19:24:35.909Z,12.65
2023-01-01T19:27:22.362Z,9.75
2023-01-01T19:29:56.242Z,9.60
2023-01-01T19:32:26.029Z,10.55
2023-01-01T19:34:58.710Z,11.02
2023-01-01T19:37:30.518Z,10.85
2023-01-01T19:39:59.954Z,8.40
2023-01-01T19:42:29.423Z,7.10
2023-01-01T19:45:03.229Z,7.50
2023-01-01T19:50:05.577Z,8.70
2023-01-01T19:52:40.405Z,9.77
2023-01-01T19:55:13.732Z,7.20
2023-01-01T19:57:46.690Z,6.93
2023-01-01T20:00:16.808Z,7.47
2023-01-01T20:02:47.923Z,8.98
2023-01-01T20:05:18.310Z,10.75
2023-01-01T20:07:48.792Z,11.57
2023-01-01T20:10:23.593Z,9.63
2023-01-01T20:13:02.908Z,9.25
2023-01-01T20:15:40.523Z,9.60
2023-01-01T20:18:16.039Z,8.90
2023-01-01T20:21:04.978Z,8.77
2023-01-01T20:23:34.593Z,7.00
2023-01-01T20:26:04.941Z,8.15
2023-01-01T20:28:52.487Z,7.85
2023-01-01T20:31:21.855Z,9.70
2023-01-01T20:33:51.165Z,10.00
2023-01-01T20:36:38.268Z,9.05
2023-01-01T20:39:07.096Z,9.20
2023-01-01T20:41:36.187Z,11.45
2023-01-01T20:44:04.243Z,9.50
2023-01-01T20:46:36.385Z,10.75
2023-01-01T20:49:06.581Z,12.13
2023-01-01T20:51:36.734Z,11.88
2023-01-01T20:54:05.179Z,10.15
2023-01-01T20:56:34.905Z,9.95
2023-01-01T20:59:31.405Z,11.77
2023-01-01T21:01:59.875Z,8.43
2023-01-01T21:04:29.028Z,8.35
2023-01-01T21:06:57.125Z,9.35
2023-01-01T21:09:25.249Z,8.80
2023-01-01T21:11:53.593Z,9.52
2023-01-01T21:14:25.654Z,12.18
2023-01-01T21:16:55.512Z,11.57
2023-01-01T21:19:26.989Z,12.00
2023-01-01T21:24:43.315Z,9.60
2023-01-01T21:27:24.118Z,11.82
2023-01-01T21:29:54.779Z,10.90
2023-01-01T21:32:29.223Z,10.02
2023-01-01T21:34:57.312Z,9.27
2023-01-01T21:37:48.722Z,9.85
2023-01-01T21:40:31.185Z,9.18
2023-01-01T21:43:12.607Z,9.73
2023-01-01T21:45:57.673Z,7.95
2023-01-01T21:48:52.310Z,10.20
2023-01-01T21:51:23.522Z,8.98
2023-01-01T21:53:54.404Z,8.30
2023-01-01T21:56:33.003Z,8.77
2023-01-01T21:59:38.067Z,9.35
2023-01-01T22:02:08.688Z,8.05
2023-01-01T22:04:38.325Z,8.88
2023-01-01T22:07:56.909Z,9.23
2023-01-01T22:10:36.942Z,7.93
2023-01-01T22:13:17.260Z,7.95
2023-01-01T22:15:46.810Z,7.65
2023-01-01T22:18:19.205Z,7.82
2023-01-01T22:20:48.002Z,8.68
2023-01-01T22:23:34.396Z,8.40
2023-01-01T22:26:19.548Z,7.53
2023-01-01T22:28:49.895Z,7.78
2023-01-01T22:31:32.395Z,7.45
2023-01-01T22:34:02.453Z,7.32
2023-01-01T22:36:38.063Z,6.93
2023-01-01T22:39:26.922Z,7.15
2023-01-01T22:41:55.582Z,6.95
2023-01-01T22:44:26.013Z,6.53
2023-01-01T22:46:58.792Z,6.57
2023-01-01T22:49:36.157Z,6.80
2023-01-01T22:52:04.872Z,7.18
2023-01-01T22:54:33.069Z,6.70
2023-01-01T22:57:00.967Z,7.37
2023-01-01T22:59:28.955Z,6.80
2023-01-01T23:01:57.162Z,6.05
2023-01-01T23:04:24.968Z,6.05
2023-01-01T23:06:53.800Z,5.82
2023-01-01T23:09:22.059Z,8.38
2023-01-01T23:11:49.849Z,7.87
2023-01-01T23:14:39.045Z,7.53
2023-01-01T23:17:07.913Z,5.37
2023-01-01T23:19:35.974Z,4.70
2023-01-01T23:22:04.579Z,4.87
2023-01-01T23:24:33.205Z,4.43
2023-01-01T23:27:01.688Z,4.87
2023-01-01T23:29:33.839Z,4.30
2023-01-01T23:32:05.186Z,4.10
2023-01-01T23:34:33.670Z,5.50
2023-01-01T23:37:01.741Z,5.57
2023-01-01T23:39:29.880Z,4.12
2023-01-01T23:42:00.808Z,4.72
2023-01-01T23:44:29.113Z,5.32
2023-01-01T23:46:59.570Z,5.43
2023-01-01T23:49:28.845Z,4.45
2023-01-01T23:51:57.205Z,4.43
2023-01-01T23:54:25.173Z,4.55
2023-01-01T23:56:52.935Z,4.72
2023-01-01T23:59:24.236Z,6.85
